Time;durP1;ratioP1;P1;durP2;ratioP2;P2;SDS_P1;SDS_P2;PMS_P1;PMS_P2;Temp;Humidity;BMP_temperature;BMP_pressure;BME280_temperature;BME280_humidity;BME280_pressure;Samples;Min_cycle;Max_cycle;Signal;HPM_P1;HPM_P2
2024/03/13 00:02:02;;;;;;;0.50;0.50;;;5.80;99.90;;;;;;5073590;28;20179;-59
2024/03/13 00:04:34;;;;;;;0.40;0.40;;;5.80;99.90;;;;;;5073762;28;20427;-59
2024/03/13 00:06:59;;;;;;;1.48;0.75;;;5.80;99.90;;;;;;5073735;28;20185;-59
2024/03/13 00:09:25;;;;;;;0.60;0.60;;;5.80;99.90;;;;;;5073218;28;20170;-59
2024/03/13 00:11:52;;;;;;;0.60;0.60;;;5.70;99.90;;;;;;5073061;28;20177;-59
2024/03/13 00:14:18;;;;;;;0.45;0.45;;;5.60;99.90;;;;;;5072767;28;20576;-59
2024/03/13 00:16:44;;;;;;;0.50;0.50;;;5.70;99.90;;;;;;5055307;28;20227;-59
2024/03/13 00:19:10;;;;;;;0.60;0.60;;;5.60;99.90;;;;;;5073126;28;20211;-59
2024/03/13 00:21:36;;;;;;;0.40;0.40;;;5.60;99.90;;;;;;5073295;28;20170;-59
2024/03/13 00:24:02;;;;;;;0.52;0.50;;;5.60;99.90;;;;;;5073015;28;20220;-59
2024/03/13 00:26:29;;;;;;;0.40;0.40;;;5.60;99.90;;;;;;5073086;28;20181;-57
2024/03/13 00:28:54;;;;;;;0.70;0.70;;;5.60;99.90;;;;;;5072697;28;20230;-59
2024/03/13 00:31:20;;;;;;;0.53;0.53;;;5.70;99.90;;;;;;5072901;28;20549;-59
2024/03/13 00:33:46;;;;;;;0.70;0.70;;;5.70;99.90;;;;;;5072944;28;20198;-59
2024/03/13 00:36:12;;;;;;;0.53;0.53;;;5.80;99.90;;;;;;5073079;28;20227;-59
2024/03/13 00:38:38;;;;;;;0.97;0.50;;;5.80;99.90;;;;;;5072786;28;20495;-59
2024/03/13 00:41:03;;;;;;;0.50;0.50;;;5.80;99.90;;;;;;5072786;28;20547;-59
2024/03/13 00:43:30;;;;;;;1.03;0.60;;;5.80;99.90;;;;;;5072588;28;20420;-59
2024/03/13 00:45:56;;;;;;;0.60;0.60;;;5.80;99.90;;;;;;5072679;28;20848;-59
2024/03/13 00:48:22;;;;;;;0.70;0.70;;;5.80;99.90;;;;;;5072544;28;20563;-60
2024/03/13 00:50:48;;;;;;;0.87;0.70;;;5.80;99.90;;;;;;5072652;28;20172;-59
2024/03/13 00:53:14;;;;;;;0.80;0.50;;;5.80;99.90;;;;;;5072491;28;20201;-59
2024/03/13 00:55:40;;;;;;;1.10;1.00;;;5.80;99.90;;;;;;5072454;28;20210;-59
2024/03/13 00:58:09;;;;;;;1.25;0.55;;;5.80;99.90;;;;;;5072169;28;20175;-59
2024/03/13 01:00:36;;;;;;;0.63;0.50;;;5.80;99.90;;;;;;5072735;28;20640;-59
2024/03/13 01:03:03;;;;;;;0.43;0.43;;;5.80;99.90;;;;;;5072269;28;20189;-59
2024/03/13 01:05:30;;;;;;;4.00;0.73;;;5.80;99.90;;;;;;5072413;28;20593;-58
2024/03/13 01:07:56;;;;;;;0.68;0.47;;;5.80;99.90;;;;;;5072230;28;20621;-59
2024/03/13 01:10:24;;;;;;;0.82;0.80;;;5.80;99.90;;;;;;5072068;28;20706;-60
2024/03/13 01:12:50;;;;;;;1.92;1.00;;;5.80;99.90;;;;;;5071658;28;20237;-59
2024/03/13 01:15:16;;;;;;;1.20;0.70;;;5.80;99.90;;;;;;5072179;28;20217;-59
2024/03/13 01:17:42;;;;;;;0.60;0.60;;;5.80;99.90;;;;;;5071875;28;20165;-59
2024/03/13 01:20:09;;;;;;;0.47;0.47;;;5.80;99.90;;;;;;5071624;28;20416;-59
2024/03/13 01:22:37;;;;;;;0.55;0.55;;;5.80;99.90;;;;;;5071869;28;20215;-59
2024/03/13 01:25:06;;;;;;;0.60;0.60;;;5.80;99.90;;;;;;5071822;28;20173;-59
2024/03/13 01:27:31;;;;;;;0.60;0.60;;;5.80;99.90;;;;;;5071861;28;20234;-59
2024/03/13 01:29:57;;;;;;;0.40;0.40;;;5.80;99.90;;;;;;5053839;28;20467;-59
2024/03/13 01:32:23;;;;;;;0.97;0.50;;;5.80;99.90;;;;;;5072052;28;20173;-59
2024/03/13 01:34:49;;;;;;;0.70;0.70;;;5.90;99.90;;;;;;5071672;28;20204;-59
2024/03/13 01:40:04;;;;;;;0.70;0.70;;;5.80;99.90;;;;;;5071427;28;20188;-59
2024/03/13 01:56:31;;;;;;;0.60;0.50;;;6.20;99.90;;;;;;5071520;28;20172;-57
2024/03/13 01:59:03;;;;;;;0.80;0.50;;;6.30;99.90;;;;;;5071495;28;20252;-57
2024/03/13 02:04:16;;;;;;;0.50;0.50;;;6.30;99.90;;;;;;5071474;28;20210;-57
2024/03/13 02:06:42;;;;;;;0.50;0.50;;;6.30;99.90;;;;;;5071513;28;20166;-57
2024/03/13 02:09:09;;;;;;;0.63;0.63;;;6.30;99.90;;;;;;5071012;28;20175;-57
2024/03/13 02:11:36;;;;;;;0.50;0.50;;;6.40;99.90;;;;;;5071636;28;20184;-57
2024/03/13 02:14:04;;;;;;;0.40;0.40;;;6.50;99.90;;;;;;5071153;28;20436;-58
2024/03/13 02:16:31;;;;;;;0.30;0.30;;;6.50;99.90;;;;;;5071420;28;20256;-57
2024/03/13 02:18:58;;;;;;;0.60;0.60;;;6.60;99.90;;;;;;5071100;28;20161;-58
2024/03/13 02:21:24;;;;;;;0.55;0.45;;;6.70;99.90;;;;;;5071168;28;20229;-58
2024/03/13 02:23:50;;;;;;;0.52;0.52;;;6.70;99.90;;;;;;5071170;28;20282;-58
2024/03/13 02:26:15;;;;;;;0.50;0.50;;;6.70;99.90;;;;;;5071391;28;20270;-58
2024/03/13 02:28:41;;;;;;;0.40;0.40;;;6.80;99.90;;;;;;5070965;28;20220;-58
2024/03/13 02:31:07;;;;;;;0.50;0.50;;;6.80;99.90;;;;;;5071233;28;20173;-58
2024/03/13 02:33:33;;;;;;;0.40;0.40;;;6.80;99.90;;;;;;5073028;28;20226;-57
2024/03/13 02:35:59;;;;;;;0.40;0.40;;;6.90;99.90;;;;;;5074806;28;20271;-57
2024/03/13 02:38:25;;;;;;;0.55;0.55;;;6.90;99.90;;;;;;5056814;28;20204;-58
2024/03/13 02:40:52;;;;;;;0.40;0.40;;;6.90;99.90;;;;;;5074874;28;20252;-57
2024/03/13 02:43:19;;;;;;;0.70;0.70;;;6.90;99.90;;;;;;5075124;28;20203;-58
2024/03/13 02:45:44;;;;;;;0.47;0.47;;;6.90;99.90;;;;;;5074655;28;20674;-58
2024/03/13 02:48:12;;;;;;;0.40;0.40;;;7.00;99.90;;;;;;5074503;28;20194;-58
2024/03/13 02:50:40;;;;;;;1.27;0.50;;;7.00;99.90;;;;;;5074538;28;20194;-58
2024/03/13 02:53:09;;;;;;;0.65;0.65;;;7.10;99.90;;;;;;5074702;28;20231;-58
2024/03/13 02:55:35;;;;;;;0.40;0.40;;;7.10;99.90;;;;;;5074584;28;20288;-57
2024/03/13 02:58:01;;;;;;;0.40;0.40;;;7.10;99.90;;;;;;5074370;28;20222;-58
2024/03/13 03:00:27;;;;;;;0.47;0.43;;;7.20;99.90;;;;;;5074534;28;20164;-58
2024/03/13 03:02:54;;;;;;;0.43;0.43;;;7.30;99.90;;;;;;5074447;28;20199;-58
2024/03/13 03:05:20;;;;;;;0.40;0.40;;;7.40;99.90;;;;;;5074301;28;20639;-58
2024/03/13 03:07:46;;;;;;;0.40;0.40;;;7.30;99.90;;;;;;5074438;28;20252;-57
2024/03/13 03:10:12;;;;;;;0.60;0.40;;;7.30;99.90;;;;;;5074306;28;20548;-58
2024/03/13 03:12:40;;;;;;;0.40;0.40;;;7.40;99.90;;;;;;5074098;28;20523;-58
2024/03/13 03:15:06;;;;;;;0.45;0.45;;;7.40;99.90;;;;;;5074209;28;20677;-58
2024/03/13 03:17:32;;;;;;;0.40;0.40;;;7.40;99.90;;;;;;5074160;28;20168;-56
2024/03/13 03:19:58;;;;;;;0.40;0.40;;;7.40;99.90;;;;;;5072739;28;20604;-57
2024/03/13 03:22:24;;;;;;;0.45;0.45;;;7.50;99.90;;;;;;5074052;28;20173;-55
2024/03/13 03:24:50;;;;;;;0.33;0.33;;;7.60;99.90;;;;;;5073994;28;20245;-56
2024/03/13 03:27:15;;;;;;;1.07;0.50;;;7.60;99.90;;;;;;5074075;28;20246;-56
2024/03/13 03:29:41;;;;;;;0.30;0.30;;;7.60;99.90;;;;;;5073661;28;20185;-55
2024/03/13 03:32:08;;;;;;;1.13;0.50;;;7.50;99.90;;;;;;5074099;28;20180;-55
2024/03/13 03:34:39;;;;;;;0.40;0.40;;;7.40;99.90;;;;;;5073593;28;20232;-57
2024/03/13 03:37:05;;;;;;;0.40;0.40;;;7.40;99.90;;;;;;5074063;28;20165;-58
2024/03/13 03:39:35;;;;;;;0.40;0.40;;;7.30;99.90;;;;;;5073617;28;20201;-58
2024/03/13 03:42:03;;;;;;;0.60;0.40;;;7.40;99.90;;;;;;5073833;28;20195;-58
2024/03/13 03:44:29;;;;;;;0.40;0.40;;;7.50;99.90;;;;;;5073221;28;20196;-58
2024/03/13 03:46:59;;;;;;;0.30;0.30;;;7.50;99.90;;;;;;5073593;28;20224;-58
2024/03/13 03:49:27;;;;;;;0.43;0.40;;;7.60;99.90;;;;;;5071884;28;20178;-58
2024/03/13 03:51:53;;;;;;;0.50;0.50;;;7.50;99.90;;;;;;5073712;28;20173;-58
2024/03/13 03:54:21;;;;;;;0.40;0.40;;;7.50;99.90;;;;;;5073438;28;20270;-58
2024/03/13 03:56:46;;;;;;;0.45;0.45;;;7.60;99.90;;;;;;5073566;28;20180;-58
2024/03/13 03:59:13;;;;;;;0.50;0.40;;;7.70;99.90;;;;;;5073726;28;20172;-58
2024/03/13 04:01:41;;;;;;;0.40;0.40;;;7.60;99.90;;;;;;5073397;28;20179;-58
2024/03/13 04:04:07;;;;;;;0.57;0.43;;;7.60;99.90;;;;;;5073337;28;20608;-58
2024/03/13 04:06:33;;;;;;;0.40;0.40;;;7.60;99.90;;;;;;5073349;28;20607;-58
2024/03/13 04:08:59;;;;;;;0.40;0.40;;;7.70;99.90;;;;;;5072996;28;20209;-58
2024/03/13 04:11:25;;;;;;;0.40;0.40;;;7.70;99.90;;;;;;5073185;28;20182;-58
2024/03/13 04:13:53;;;;;;;0.40;0.40;;;7.80;99.90;;;;;;5072354;28;20209;-57
2024/03/13 04:16:20;;;;;;;0.68;0.68;;;7.80;99.90;;;;;;5073033;28;20165;-58
2024/03/13 04:18:46;;;;;;;0.50;0.47;;;7.80;99.90;;;;;;5072849;28;20576;-58
2024/03/13 04:21:12;;;;;;;0.40;0.40;;;7.70;99.90;;;;;;5072897;28;20173;-58
2024/03/13 04:23:38;;;;;;;0.40;0.40;;;7.70;99.90;;;;;;5072894;28;20431;-57
2024/03/13 04:26:07;;;;;;;0.40;0.40;;;7.70;99.90;;;;;;5073342;28;20539;-58
2024/03/13 04:28:32;;;;;;;0.40;0.40;;;7.70;99.90;;;;;;5072497;28;20172;-58
2024/03/13 04:31:01;;;;;;;0.40;0.40;;;7.80;99.90;;;;;;5073007;28;20536;-58
2024/03/13 04:33:28;;;;;;;0.43;0.40;;;7.80;99.90;;;;;;5072569;28;20243;-58
2024/03/13 04:35:53;;;;;;;0.40;0.40;;;7.80;99.90;;;;;;5072635;28;20262;-58
2024/03/13 04:38:19;;;;;;;0.30;0.30;;;7.80;99.90;;;;;;5072434;28;20169;-58
2024/03/13 04:40:45;;;;;;;0.70;0.67;;;7.90;99.90;;;;;;5072656;28;20644;-58
2024/03/13 04:43:10;;;;;;;0.50;0.50;;;8.00;99.90;;;;;;5072319;28;20194;-58
2024/03/13 04:45:36;;;;;;;0.40;0.40;;;8.00;99.90;;;;;;5072538;28;20554;-58
2024/03/13 04:48:06;;;;;;;0.30;0.30;;;8.10;99.90;;;;;;5072295;28;20176;-59
2024/03/13 04:50:34;;;;;;;0.73;0.50;;;8.10;99.90;;;;;;5072280;28;20420;-58
2024/03/13 04:53:00;;;;;;;2.15;0.60;;;8.00;99.90;;;;;;5072354;28;20197;-58
2024/03/13 04:55:26;;;;;;;0.40;0.40;;;7.90;99.90;;;;;;5071510;28;20193;-58
2024/03/13 04:57:52;;;;;;;0.50;0.40;;;7.90;99.90;;;;;;5072025;28;20189;-58
2024/03/13 05:00:17;;;;;;;0.40;0.40;;;7.70;99.90;;;;;;5072148;28;20252;-58
2024/03/13 05:02:43;;;;;;;0.40;0.40;;;7.70;99.90;;;;;;5072298;28;20652;-58
2024/03/13 05:05:12;;;;;;;0.70;0.60;;;7.90;99.90;;;;;;5072128;28;20178;-58
2024/03/13 05:07:39;;;;;;;0.40;0.40;;;7.80;99.90;;;;;;5072100;28;20375;-58
2024/03/13 05:10:06;;;;;;;1.50;0.63;;;7.60;99.90;;;;;;5071848;28;20205;-57
2024/03/13 05:12:36;;;;;;;0.40;0.40;;;7.60;99.90;;;;;;5071697;28;20274;-58
2024/03/13 05:15:03;;;;;;;0.50;0.50;;;7.60;99.90;;;;;;5071974;28;20273;-58
2024/03/13 05:17:29;;;;;;;0.47;0.47;;;7.60;99.90;;;;;;5054201;28;20173;-58
2024/03/13 05:19:54;;;;;;;0.50;0.50;;;7.70;99.90;;;;;;5071758;28;20569;-58
2024/03/13 05:22:20;;;;;;;0.53;0.53;;;7.90;99.90;;;;;;5071876;28;20461;-58
2024/03/13 05:24:48;;;;;;;0.80;0.53;;;7.90;99.90;;;;;;5071811;28;20339;-58
2024/03/13 05:27:15;;;;;;;0.40;0.40;;;8.00;99.90;;;;;;5071774;28;20178;-58
2024/03/13 05:29:41;;;;;;;0.63;0.63;;;8.10;99.90;;;;;;5071658;28;20268;-57
2024/03/13 05:32:07;;;;;;;0.47;0.40;;;8.10;99.90;;;;;;5071843;28;20252;-58
2024/03/13 05:34:33;;;;;;;0.50;0.50;;;8.10;99.90;;;;;;5071487;28;20196;-57
2024/03/13 05:37:00;;;;;;;0.50;0.50;;;8.10;99.90;;;;;;5071157;28;20166;-58
2024/03/13 05:39:25;;;;;;;0.75;0.57;;;8.10;99.90;;;;;;5069811;28;20253;-58
2024/03/13 05:41:51;;;;;;;0.40;0.40;;;7.90;99.90;;;;;;5070388;28;20590;-58
2024/03/13 05:44:17;;;;;;;0.40;0.40;;;7.90;99.90;;;;;;5071741;28;20708;-58
2024/03/13 05:46:43;;;;;;;0.40;0.40;;;8.00;99.90;;;;;;5071672;28;20185;-58
2024/03/13 05:49:11;;;;;;;0.43;0.43;;;8.00;99.90;;;;;;5071383;28;20174;-59
2024/03/13 05:51:36;;;;;;;0.40;0.40;;;8.10;99.90;;;;;;5071576;28;20173;-59
2024/03/13 05:54:02;;;;;;;0.40;0.40;;;8.20;99.90;;;;;;5071311;28;20678;-60
2024/03/13 05:56:28;;;;;;;0.50;0.50;;;8.30;99.90;;;;;;5053620;28;20193;-59
2024/03/13 05:58:54;;;;;;;1.90;0.43;;;8.30;99.90;;;;;;5071307;28;20227;-59
2024/03/13 06:01:26;;;;;;;0.50;0.47;;;8.40;99.90;;;;;;5071691;28;20177;-59
2024/03/13 06:03:53;;;;;;;0.40;0.40;;;8.20;99.90;;;;;;5071469;28;20296;-59
2024/03/13 06:06:22;;;;;;;0.50;0.50;;;8.10;99.90;;;;;;5071513;28;20235;-59
2024/03/13 06:08:48;;;;;;;0.50;0.50;;;8.00;99.90;;;;;;5075010;28;20173;-58
2024/03/13 06:11:18;;;;;;;0.40;0.40;;;8.00;99.90;;;;;;5075538;28;20176;-59
2024/03/13 06:13:48;;;;;;;0.40;0.40;;;8.00;99.90;;;;;;5075367;28;20213;-59
2024/03/13 06:16:15;;;;;;;0.55;0.55;;;8.10;99.90;;;;;;5075418;28;20201;-59
2024/03/13 06:18:41;;;;;;;0.35;0.35;;;8.20;99.90;;;;;;5075123;28;20203;-59
2024/03/13 06:21:07;;;;;;;0.38;0.38;;;8.20;99.90;;;;;;5075385;28;20314;-59
2024/03/13 06:23:47;;;;;;;0.40;0.40;;;8.50;99.90;;;;;;5075199;28;20185;-59
2024/03/13 06:26:21;;;;;;;0.40;0.40;;;8.40;99.90;;;;;;5074318;28;20227;-59
2024/03/13 06:31:33;;;;;;;0.70;0.70;;;8.40;99.90;;;;;;5074882;28;20234;-59
2024/03/13 06:33:59;;;;;;;0.50;0.40;;;8.40;99.90;;;;;;5075067;28;20670;-60
2024/03/13 06:36:25;;;;;;;0.77;0.77;;;8.40;99.90;;;;;;5074898;28;20223;-60
2024/03/13 06:38:51;;;;;;;1.75;0.40;;;8.40;99.90;;;;;;5074720;28;20404;-60
2024/03/13 06:41:16;;;;;;;0.30;0.30;;;8.50;99.90;;;;;;5074988;28;20657;-60
2024/03/13 06:43:42;;;;;;;0.50;0.50;;;8.50;99.90;;;;;;5074912;28;20455;-60
2024/03/13 06:46:08;;;;;;;0.60;0.40;;;8.60;99.90;;;;;;5074783;28;20635;-59
2024/03/13 06:48:34;;;;;;;0.40;0.40;;;8.70;99.90;;;;;;5074532;28;20227;-59
2024/03/13 06:51:06;;;;;;;0.45;0.45;;;8.70;99.90;;;;;;5074689;28;20525;-59
2024/03/13 06:53:31;;;;;;;0.80;0.50;;;8.70;99.90;;;;;;5068201;28;20258;-60
2024/03/13 06:55:57;;;;;;;0.40;0.40;;;8.80;99.90;;;;;;5074573;28;20201;-59
2024/03/13 06:58:22;;;;;;;0.50;0.50;;;8.90;99.90;;;;;;5056409;28;20174;-59
2024/03/13 07:00:49;;;;;;;0.90;0.63;;;9.00;99.90;;;;;;5074533;28;20177;-59
2024/03/13 07:03:15;;;;;;;1.30;0.50;;;9.00;99.90;;;;;;5074306;28;20201;-59
2024/03/13 07:05:41;;;;;;;0.40;0.40;;;9.00;99.90;;;;;;5074434;28;20659;-59
2024/03/13 07:08:07;;;;;;;0.80;0.70;;;9.00;99.90;;;;;;5074220;28;20256;-59
2024/03/13 07:10:32;;;;;;;2.77;1.43;;;9.10;99.90;;;;;;5074673;28;20177;-62
2024/03/13 07:12:58;;;;;;;0.80;0.80;;;9.10;99.90;;;;;;5074173;28;20674;-59
2024/03/13 07:15:24;;;;;;;0.87;0.70;;;9.10;99.90;;;;;;5074166;28;20185;-60
2024/03/13 07:17:49;;;;;;;2.93;0.70;;;9.20;99.90;;;;;;5074177;28;20166;-60
2024/03/13 07:20:15;;;;;;;1.73;0.67;;;9.10;99.90;;;;;;5073490;28;20204;-61
2024/03/13 07:22:41;;;;;;;0.98;0.70;;;8.90;99.90;;;;;;5074226;28;20174;-59
2024/03/13 07:25:09;;;;;;;0.80;0.80;;;9.00;99.90;;;;;;5074177;28;20248;-59
2024/03/13 07:27:35;;;;;;;0.40;0.40;;;9.20;99.90;;;;;;5074047;28;20178;-61
2024/03/13 07:30:01;;;;;;;0.57;0.57;;;9.20;99.90;;;;;;5073471;28;20555;-61
2024/03/13 07:32:27;;;;;;;0.53;0.53;;;9.20;99.90;;;;;;5073920;28;20200;-61
2024/03/13 07:34:52;;;;;;;0.40;0.40;;;9.20;99.90;;;;;;5073790;28;20447;-62
2024/03/13 07:37:18;;;;;;;0.40;0.40;;;9.20;99.90;;;;;;5073884;28;20556;-61
2024/03/13 07:39:44;;;;;;;0.40;0.40;;;9.30;99.90;;;;;;5073430;28;20639;-60
2024/03/13 07:42:10;;;;;;;0.60;0.60;;;9.40;99.90;;;;;;5073758;28;20174;-60
2024/03/13 07:44:36;;;;;;;0.37;0.37;;;9.50;99.90;;;;;;5072805;28;20292;-62
2024/03/13 07:47:01;;;;;;;0.70;0.53;;;9.60;99.90;;;;;;5068198;28;20200;-61
2024/03/13 07:49:30;;;;;;;0.40;0.40;;;9.70;99.90;;;;;;5073415;28;20166;-63
2024/03/13 07:52:01;;;;;;;0.40;0.40;;;9.80;99.90;;;;;;5073516;28;20181;-61
2024/03/13 07:54:28;;;;;;;0.70;0.40;;;9.90;99.90;;;;;;5073548;28;20206;-62
2024/03/13 07:56:53;;;;;;;0.45;0.45;;;10.00;99.90;;;;;;5073389;28;20661;-62
2024/03/13 07:59:19;;;;;;;0.47;0.47;;;10.00;99.90;;;;;;5073250;28;20182;-61
2024/03/13 08:01:45;;;;;;;0.50;0.50;;;10.00;99.90;;;;;;5073390;28;20176;-64
2024/03/13 08:04:11;;;;;;;0.63;0.60;;;10.10;99.90;;;;;;5073353;28;20249;-59
2024/03/13 08:06:38;;;;;;;0.50;0.50;;;10.10;99.90;;;;;;5073384;28;20189;-61
2024/03/13 08:09:04;;;;;;;1.05;0.93;;;10.10;99.90;;;;;;5073101;28;20201;-60
2024/03/13 08:11:31;;;;;;;1.23;0.82;;;10.20;99.90;;;;;;5055187;28;20185;-60
2024/03/13 08:13:59;;;;;;;7.38;2.72;;;10.20;99.90;;;;;;5072911;28;20233;-61
2024/03/13 08:16:26;;;;;;;1.83;1.63;;;10.30;99.90;;;;;;5073235;28;20181;-62
2024/03/13 08:18:52;;;;;;;2.00;1.30;;;10.30;99.90;;;;;;5073106;28;20462;-62
2024/03/13 08:21:18;;;;;;;2.20;0.90;;;10.30;99.90;;;;;;5073021;28;20432;-61
2024/03/13 08:23:44;;;;;;;7.07;4.13;;;10.40;99.90;;;;;;5072917;28;20185;-61
2024/03/13 08:26:10;;;;;;;2.35;1.60;;;10.40;99.90;;;;;;5072864;28;20603;-61
2024/03/13 08:28:37;;;;;;;0.70;0.50;;;10.50;99.90;;;;;;5072572;28;20190;-61
2024/03/13 08:31:05;;;;;;;1.93;0.80;;;10.60;99.90;;;;;;5072799;28;20418;-61
2024/03/13 08:33:31;;;;;;;0.73;0.70;;;10.70;99.90;;;;;;5072748;28;20801;-60
2024/03/13 08:35:58;;;;;;;0.50;0.50;;;10.80;99.90;;;;;;5072594;28;21102;-60
2024/03/13 08:38:23;;;;;;;0.43;0.43;;;11.10;99.90;;;;;;5072444;28;20415;-60
2024/03/13 08:40:49;;;;;;;0.70;0.70;;;11.30;99.90;;;;;;5072590;28;20487;-61
2024/03/13 08:43:19;;;;;;;1.83;1.13;;;11.30;99.90;;;;;;5072564;28;20684;-61
2024/03/13 08:45:47;;;;;;;0.40;0.40;;;11.40;99.90;;;;;;5072611;28;20216;-61
2024/03/13 08:48:13;;;;;;;0.50;0.50;;;11.40;99.90;;;;;;5072316;28;20400;-61
2024/03/13 08:50:40;;;;;;;0.43;0.43;;;11.40;99.90;;;;;;5071328;28;20496;-61
2024/03/13 08:53:06;;;;;;;1.57;1.47;;;11.30;99.90;;;;;;5069380;28;20599;-60
2024/03/13 08:55:34;;;;;;;0.60;0.60;;;11.20;99.90;;;;;;5070890;28;20445;-60
2024/03/13 08:58:02;;;;;;;0.80;0.43;;;11.00;99.90;;;;;;5072048;28;20201;-61
2024/03/13 09:00:28;;;;;;;0.73;0.40;;;11.00;99.90;;;;;;5072301;28;20533;-61
2024/03/13 09:02:56;;;;;;;0.30;0.30;;;11.20;99.90;;;;;;5072214;28;20446;-61
2024/03/13 09:05:22;;;;;;;0.50;0.43;;;11.40;99.90;;;;;;5072229;28;20416;-61
2024/03/13 09:07:48;;;;;;;0.40;0.40;;;11.40;99.90;;;;;;5071879;28;20412;-61
2024/03/13 09:10:16;;;;;;;0.40;0.40;;;11.40;99.90;;;;;;5072022;28;20174;-61
2024/03/13 09:12:42;;;;;;;0.57;0.57;;;11.30;99.90;;;;;;5071910;28;20746;-61
2024/03/13 09:15:09;;;;;;;0.40;0.40;;;11.30;99.90;;;;;;5072052;28;20447;-60
2024/03/13 09:17:35;;;;;;;0.53;0.53;;;11.30;99.90;;;;;;5072114;28;20404;-61
2024/03/13 09:20:01;;;;;;;0.50;0.50;;;11.30;99.90;;;;;;5071713;28;20940;-61
2024/03/13 09:22:27;;;;;;;0.43;0.40;;;11.20;99.90;;;;;;5071868;28;20400;-61
2024/03/13 09:24:53;;;;;;;0.50;0.50;;;11.20;99.90;;;;;;5071259;28;20798;-61
2024/03/13 09:27:19;;;;;;;0.50;0.40;;;11.30;99.90;;;;;;5071546;28;20596;-61
2024/03/13 09:29:45;;;;;;;0.80;0.67;;;11.40;99.70;;;;;;5071073;28;20430;-60
2024/03/13 09:32:12;;;;;;;0.80;0.80;;;11.60;99.90;;;;;;5053466;28;20548;-60
2024/03/13 09:34:38;;;;;;;0.87;0.80;;;11.90;99.90;;;;;;5071273;28;20857;-60
2024/03/13 09:37:07;;;;;;;0.50;0.40;;;12.20;99.00;;;;;;5071361;28;20402;-61
2024/03/13 09:39:33;;;;;;;0.40;0.40;;;12.30;98.10;;;;;;5071267;28;20272;-60
2024/03/13 09:41:59;;;;;;;0.40;0.40;;;12.30;98.00;;;;;;5071352;28;20422;-60
2024/03/13 09:44:29;;;;;;;0.30;0.30;;;12.20;98.10;;;;;;5071539;28;20466;-60
2024/03/13 09:46:57;;;;;;;0.63;0.60;;;12.10;98.60;;;;;;5071803;28;20440;-60
2024/03/13 09:49:27;;;;;;;0.30;0.30;;;12.10;98.60;;;;;;5071270;28;20412;-60
2024/03/13 09:51:53;;;;;;;0.43;0.43;;;12.00;98.50;;;;;;5071629;28;20411;-60
2024/03/13 09:54:20;;;;;;;0.40;0.40;;;12.00;99.20;;;;;;5071483;28;20482;-61
2024/03/13 09:56:47;;;;;;;0.40;0.40;;;12.20;99.30;;;;;;5071555;28;20461;-60
2024/03/13 09:59:13;;;;;;;0.40;0.40;;;12.30;98.10;;;;;;5071272;28;20395;-59
2024/03/13 10:01:49;;;;;;;0.40;0.40;;;12.30;98.10;;;;;;5071645;28;20404;-61
2024/03/13 10:04:22;;;;;;;0.60;0.60;;;12.20;98.10;;;;;;5071574;28;20485;-60
2024/03/13 10:06:56;;;;;;;0.50;0.50;;;12.20;98.70;;;;;;5071734;28;20413;-60
2024/03/13 10:09:28;;;;;;;0.40;0.40;;;12.30;99.00;;;;;;5071245;28;20407;-61
2024/03/13 10:12:00;;;;;;;0.40;0.40;;;12.30;98.60;;;;;;5071201;28;20893;-60
2024/03/13 10:14:27;;;;;;;0.40;0.40;;;12.30;98.00;;;;;;5070289;28;20467;-60
2024/03/13 10:16:53;;;;;;;0.40;0.40;;;12.10;97.90;;;;;;5071178;28;20400;-61
2024/03/13 10:19:27;;;;;;;0.30;0.30;;;12.10;98.40;;;;;;5071039;28;20400;-60
2024/03/13 10:21:53;;;;;;;0.40;0.30;;;12.20;98.70;;;;;;5070055;28;20400;-60
2024/03/13 10:24:22;;;;;;;0.40;0.40;;;12.20;98.10;;;;;;5071274;28;20840;-60
2024/03/13 10:26:50;;;;;;;1.33;0.40;;;12.30;98.60;;;;;;5071306;28;20399;-60
2024/03/13 10:29:17;;;;;;;0.67;0.67;;;12.30;98.40;;;;;;5070872;28;20416;-60
2024/03/13 10:31:44;;;;;;;0.60;0.53;;;12.30;98.70;;;;;;5071298;28;20458;-61
2024/03/13 10:34:10;;;;;;;0.63;0.40;;;12.40;98.90;;;;;;5071061;28;20427;-61
2024/03/13 10:36:39;;;;;;;0.50;0.40;;;12.40;98.70;;;;;;5070952;28;20962;-60
2024/03/13 10:39:08;;;;;;;0.40;0.40;;;12.20;98.60;;;;;;5070683;28;20174;-61
2024/03/13 10:41:34;;;;;;;0.40;0.40;;;12.20;98.40;;;;;;5070935;28;20411;-60
2024/03/13 10:44:00;;;;;;;0.40;0.40;;;12.20;98.50;;;;;;5053024;28;20432;-61
2024/03/13 10:46:26;;;;;;;0.40;0.40;;;12.00;99.10;;;;;;5071323;28;20191;-60
2024/03/13 10:48:52;;;;;;;0.40;0.40;;;12.20;99.30;;;;;;5070859;28;20404;-61
2024/03/13 10:51:18;;;;;;;0.40;0.40;;;12.40;99.10;;;;;;5070134;28;20403;-61
2024/03/13 10:53:44;;;;;;;0.50;0.50;;;12.40;98.30;;;;;;5071371;28;20817;-61
2024/03/13 10:56:14;;;;;;;0.60;0.60;;;12.30;98.30;;;;;;5074539;28;20439;-60
2024/03/13 10:58:42;;;;;;;0.50;0.40;;;12.20;98.40;;;;;;5074419;28;20269;-61
2024/03/13 11:01:16;;;;;;;1.17;0.40;;;12.00;98.70;;;;;;5073263;28;20419;-61
2024/03/13 11:03:43;;;;;;;0.60;0.60;;;11.90;99.40;;;;;;5074487;28;20419;-60
2024/03/13 11:06:13;;;;;;;0.40;0.40;;;11.80;99.90;;;;;;5074586;28;20404;-61
2024/03/13 11:08:41;;;;;;;0.50;0.50;;;11.80;99.90;;;;;;5074182;28;20561;-60
2024/03/13 11:11:12;;;;;;;0.47;0.47;;;11.50;99.40;;;;;;5074483;28;20913;-60
2024/03/13 11:13:45;;;;;;;0.50;0.50;;;11.60;99.90;;;;;;5074032;28;20443;-63
2024/03/13 11:16:11;;;;;;;0.50;0.50;;;11.80;99.90;;;;;;5074228;28;20451;-61
2024/03/13 11:18:42;;;;;;;0.40;0.40;;;12.00;99.70;;;;;;5073966;28;20423;-61
2024/03/13 11:21:16;;;;;;;0.60;0.60;;;12.00;99.20;;;;;;5074162;28;20427;-61
2024/03/13 11:23:50;;;;;;;0.43;0.43;;;12.10;99.30;;;;;;5073628;28;20428;-61
2024/03/13 11:26:20;;;;;;;1.17;0.63;;;12.20;99.70;;;;;;5039547;28;20510;-60
2024/03/13 11:28:46;;;;;;;0.73;0.63;;;12.40;99.70;;;;;;5073795;28;20416;-61
2024/03/13 11:31:13;;;;;;;0.60;0.60;;;12.60;99.50;;;;;;5074075;28;20507;-61
2024/03/13 11:33:40;;;;;;;0.83;0.60;;;12.70;98.90;;;;;;5073750;28;20431;-61
2024/03/13 11:36:10;;;;;;;1.00;0.93;;;12.80;98.90;;;;;;5073813;28;20644;-61
2024/03/13 11:38:37;;;;;;;0.50;0.50;;;12.90;99.10;;;;;;5055587;28;20777;-60
2024/03/13 11:41:05;;;;;;;0.60;0.60;;;13.00;98.80;;;;;;5073722;28;20437;-61
2024/03/13 11:43:32;;;;;;;0.73;0.73;;;13.10;98.60;;;;;;5074159;28;20760;-61
2024/03/13 11:45:59;;;;;;;0.50;0.50;;;13.00;98.00;;;;;;5073637;28;20936;-61
2024/03/13 11:48:25;;;;;;;0.90;0.80;;;12.50;97.60;;;;;;5073443;28;21087;-60
2024/03/13 11:51:00;;;;;;;0.60;0.60;;;12.00;98.80;;;;;;5073807;28;20404;-60
2024/03/13 11:53:26;;;;;;;0.40;0.40;;;11.60;99.90;;;;;;5073526;28;20427;-61
2024/03/13 11:55:53;;;;;;;0.50;0.40;;;11.50;99.90;;;;;;5073529;28;20473;-61
2024/03/13 11:58:20;;;;;;;0.40;0.40;;;11.60;99.90;;;;;;5073265;28;20396;-60
2024/03/13 12:00:49;;;;;;;0.83;0.50;;;11.90;99.90;;;;;;5073359;28;20410;-60
2024/03/13 12:03:15;;;;;;;0.50;0.50;;;12.00;99.90;;;;;;5055407;28;20451;-61
2024/03/13 12:05:41;;;;;;;0.50;0.50;;;12.10;99.70;;;;;;5073048;28;20786;-60
2024/03/13 12:08:12;;;;;;;0.40;0.40;;;12.00;99.70;;;;;;5073231;28;20408;-60
2024/03/13 12:10:39;;;;;;;1.03;0.50;;;12.00;99.90;;;;;;5073193;28;20400;-60
2024/03/13 12:13:07;;;;;;;0.60;0.60;;;11.80;99.90;;;;;;5072955;28;20940;-60
2024/03/13 12:15:33;;;;;;;0.40;0.40;;;11.80;99.90;;;;;;5073145;28;20828;-61
2024/03/13 12:18:04;;;;;;;0.40;0.40;;;11.80;99.90;;;;;;5072893;28;20411;-61
2024/03/13 12:20:35;;;;;;;0.67;0.60;;;11.90;99.90;;;;;;5073095;28;20513;-61
2024/03/13 12:23:06;;;;;;;0.63;0.63;;;11.80;99.90;;;;;;5073055;28;20810;-60
2024/03/13 12:25:33;;;;;;;0.53;0.53;;;11.80;99.90;;;;;;5072938;28;20789;-60
2024/03/13 12:27:59;;;;;;;0.47;0.47;;;11.80;99.90;;;;;;5073159;28;20412;-61
2024/03/13 12:30:29;;;;;;;0.40;0.40;;;12.00;99.90;;;;;;5072855;28;20412;-61
2024/03/13 12:32:57;;;;;;;0.40;0.40;;;12.00;99.90;;;;;;5072636;28;20482;-61
2024/03/13 12:35:22;;;;;;;0.40;0.40;;;12.10;99.90;;;;;;5072736;28;20948;-61
2024/03/13 12:37:55;;;;;;;0.53;0.50;;;12.20;99.90;;;;;;5072583;28;20465;-61
2024/03/13 12:40:21;;;;;;;1.07;0.50;;;12.30;99.90;;;;;;5072437;28;20178;-60
2024/03/13 12:42:48;;;;;;;0.67;0.67;;;12.40;99.90;;;;;;5072280;28;20415;-60
2024/03/13 12:45:17;;;;;;;0.40;0.40;;;12.40;99.90;;;;;;5072613;28;20404;-60
2024/03/13 12:47:43;;;;;;;0.40;0.40;;;12.40;99.90;;;;;;5072457;28;20776;-61
2024/03/13 12:50:16;;;;;;;0.60;0.60;;;12.30;99.90;;;;;;5072282;28;20411;-60
2024/03/13 12:52:44;;;;;;;0.50;0.50;;;12.40;99.90;;;;;;5072280;28;20885;-60
2024/03/13 12:55:12;;;;;;;0.47;0.47;;;12.40;99.80;;;;;;5072342;28;20454;-60
2024/03/13 12:57:39;;;;;;;0.47;0.47;;;12.40;99.90;;;;;;5072238;28;20491;-61
2024/03/13 13:00:14;;;;;;;0.50;0.50;;;12.40;99.90;;;;;;5072044;28;20408;-61
2024/03/13 13:02:45;;;;;;;0.50;0.40;;;12.90;99.90;;;;;;5072169;28;20403;-61
2024/03/13 13:05:12;;;;;;;0.50;0.50;;;12.70;99.90;;;;;;5072082;28;20410;-61
2024/03/13 13:07:56;;;;;;;0.93;0.93;;;13.00;99.90;;;;;;5072407;28;20864;-61
2024/03/13 13:10:24;;;;;;;0.40;0.40;;;13.30;99.20;;;;;;5071855;28;20408;-61
2024/03/13 13:12:54;;;;;;;0.40;0.40;;;13.50;98.90;;;;;;5072125;28;20826;-61
2024/03/13 13:15:21;;;;;;;0.70;0.70;;;13.40;98.40;;;;;;5071930;28;20444;-61